sensor_id;sensor_type;location;lat;lon;timestamp;P1;durP1;ratioP1;P2;durP2;ratioP2
68718;SDS011;55696;52.138;5.444;2023-02-10T00:01:45;24.38;;;10.40;;
68718;SDS011;55696;52.138;5.444;2023-02-10T00:04:12;20.98;;;10.32;;
68718;SDS011;55696;52.138;5.444;2023-02-10T00:06:39;21.35;;;9.75;;
68718;SDS011;55696;52.138;5.444;2023-02-10T00:09:10;22.93;;;10.33;;
68718;SDS011;55696;52.138;5.444;2023-02-10T00:11:39;20.80;;;9.48;;
68718;SDS011;55696;52.138;5.444;2023-02-10T00:14:25;26.42;;;10.70;;
68718;SDS011;55696;52.138;5.444;2023-02-10T00:16:53;23.60;;;9.73;;
68718;SDS011;55696;52.138;5.444;2023-02-10T00:19:20;22.00;;;10.77;;
68718;SDS011;55696;52.138;5.444;2023-02-10T00:21:49;22.40;;;11.20;;
68718;SDS011;55696;52.138;5.444;2023-02-10T00:24:16;21.20;;;9.93;;
68718;SDS011;55696;52.138;5.444;2023-02-10T00:26:43;19.10;;;9.63;;
68718;SDS011;55696;52.138;5.444;2023-02-10T00:29:10;20.13;;;9.73;;
68718;SDS011;55696;52.138;5.444;2023-02-10T00:31:37;17.55;;;8.23;;
68718;SDS011;55696;52.138;5.444;2023-02-10T00:34:05;21.65;;;10.88;;
68718;SDS011;55696;52.138;5.444;2023-02-10T00:36:32;19.90;;;9.13;;
68718;SDS011;55696;52.138;5.444;2023-02-10T00:39:00;20.40;;;9.50;;
68718;SDS011;55696;52.138;5.444;2023-02-10T00:41:27;18.65;;;8.35;;
68718;SDS011;55696;52.138;5.444;2023-02-10T00:43:54;22.27;;;9.45;;
68718;SDS011;55696;52.138;5.444;2023-02-10T00:46:21;27.80;;;9.63;;
68718;SDS011;55696;52.138;5.444;2023-02-10T00:48:49;18.17;;;8.57;;
68718;SDS011;55696;52.138;5.444;2023-02-10T00:51:16;18.10;;;9.23;;
68718;SDS011;55696;52.138;5.444;2023-02-10T00:53:44;17.98;;;8.38;;
68718;SDS011;55696;52.138;5.444;2023-02-10T00:56:11;17.50;;;9.20;;
68718;SDS011;55696;52.138;5.444;2023-02-10T00:58:38;24.17;;;8.63;;
68718;SDS011;55696;52.138;5.444;2023-02-10T01:01:05;20.15;;;9.40;;
68718;SDS011;55696;52.138;5.444;2023-02-10T01:03:32;24.27;;;8.85;;
68718;SDS011;55696;52.138;5.444;2023-02-10T01:05:59;19.33;;;8.73;;
68718;SDS011;55696;52.138;5.444;2023-02-10T01:08:27;21.58;;;9.45;;
68718;SDS011;55696;52.138;5.444;2023-02-10T01:11:01;24.70;;;11.55;;
68718;SDS011;55696;52.138;5.444;2023-02-10T01:13:30;22.67;;;10.45;;
68718;SDS011;55696;52.138;5.444;2023-02-10T01:15:59;23.17;;;10.15;;
68718;SDS011;55696;52.138;5.444;2023-02-10T01:18:27;25.20;;;10.25;;
68718;SDS011;55696;52.138;5.444;2023-02-10T01:20:55;19.98;;;9.07;;
68718;SDS011;55696;52.138;5.444;2023-02-10T01:23:22;18.50;;;9.20;;
68718;SDS011;55696;52.138;5.444;2023-02-10T01:25:50;24.20;;;10.20;;
68718;SDS011;55696;52.138;5.444;2023-02-10T01:28:16;26.50;;;10.68;;
68718;SDS011;55696;52.138;5.444;2023-02-10T01:30:44;22.02;;;10.18;;
68718;SDS011;55696;52.138;5.444;2023-02-10T01:33:11;29.73;;;10.48;;
68718;SDS011;55696;52.138;5.444;2023-02-10T01:35:37;25.30;;;10.82;;
68718;SDS011;55696;52.138;5.444;2023-02-10T01:38:06;22.48;;;9.73;;
68718;SDS011;55696;52.138;5.444;2023-02-10T01:40:32;17.43;;;8.83;;
68718;SDS011;55696;52.138;5.444;2023-02-10T01:43:00;23.02;;;9.80;;
68718;SDS011;55696;52.138;5.444;2023-02-10T01:45:33;23.80;;;9.25;;
68718;SDS011;55696;52.138;5.444;2023-02-10T01:48:02;22.23;;;9.05;;
68718;SDS011;55696;52.138;5.444;2023-02-10T01:50:31;21.58;;;9.60;;
68718;SDS011;55696;52.138;5.444;2023-02-10T01:53:03;19.85;;;9.50;;
68718;SDS011;55696;52.138;5.444;2023-02-10T01:55:32;21.52;;;7.93;;
68718;SDS011;55696;52.138;5.444;2023-02-10T01:58:01;15.97;;;7.97;;
68718;SDS011;55696;52.138;5.444;2023-02-10T02:00:30;18.50;;;8.27;;
68718;SDS011;55696;52.138;5.444;2023-02-10T02:02:57;16.83;;;8.50;;
68718;SDS011;55696;52.138;5.444;2023-02-10T02:08:02;16.85;;;8.10;;
68718;SDS011;55696;52.138;5.444;2023-02-10T02:22:24;17.50;;;8.80;;
68718;SDS011;55696;52.138;5.444;2023-02-10T02:25:04;17.77;;;9.00;;
68718;SDS011;55696;52.138;5.444;2023-02-10T02:27:51;27.65;;;11.30;;
68718;SDS011;55696;52.138;5.444;2023-02-10T02:30:38;31.73;;;12.52;;
68718;SDS011;55696;52.138;5.444;2023-02-10T02:33:19;26.83;;;11.88;;
68718;SDS011;55696;52.138;5.444;2023-02-10T02:35:52;26.77;;;11.50;;
68718;SDS011;55696;52.138;5.444;2023-02-10T02:38:25;33.67;;;11.73;;
68718;SDS011;55696;52.138;5.444;2023-02-10T02:40:52;27.65;;;11.57;;
68718;SDS011;55696;52.138;5.444;2023-02-10T02:43:21;17.37;;;10.13;;
68718;SDS011;55696;52.138;5.444;2023-02-10T02:46:12;21.20;;;8.85;;
68718;SDS011;55696;52.138;5.444;2023-02-10T02:49:03;18.73;;;9.07;;
68718;SDS011;55696;52.138;5.444;2023-02-10T02:51:52;16.07;;;9.40;;
68718;SDS011;55696;52.138;5.444;2023-02-10T02:54:45;20.73;;;8.73;;
68718;SDS011;55696;52.138;5.444;2023-02-10T03:00:09;17.50;;;8.40;;
68718;SDS011;55696;52.138;5.444;2023-02-10T03:02:46;20.65;;;8.88;;
68718;SDS011;55696;52.138;5.444;2023-02-10T03:05:18;23.08;;;9.32;;
68718;SDS011;55696;52.138;5.444;2023-02-10T03:07:47;25.05;;;9.55;;
68718;SDS011;55696;52.138;5.444;2023-02-10T03:10:14;21.67;;;9.37;;
68718;SDS011;55696;52.138;5.444;2023-02-10T03:12:41;17.70;;;9.10;;
68718;SDS011;55696;52.138;5.444;2023-02-10T03:15:08;17.42;;;8.00;;
68718;SDS011;55696;52.138;5.444;2023-02-10T03:17:35;21.95;;;9.82;;
68718;SDS011;55696;52.138;5.444;2023-02-10T03:20:02;15.73;;;8.50;;
68718;SDS011;55696;52.138;5.444;2023-02-10T03:22:29;15.02;;;8.50;;
68718;SDS011;55696;52.138;5.444;2023-02-10T03:24:56;19.20;;;8.38;;
68718;SDS011;55696;52.138;5.444;2023-02-10T03:27:22;17.57;;;8.47;;
68718;SDS011;55696;52.138;5.444;2023-02-10T03:29:49;22.00;;;9.65;;
68718;SDS011;55696;52.138;5.444;2023-02-10T03:32:18;20.95;;;9.38;;
68718;SDS011;55696;52.138;5.444;2023-02-10T03:34:45;19.30;;;10.13;;
68718;SDS011;55696;52.138;5.444;2023-02-10T03:37:12;21.30;;;10.30;;
68718;SDS011;55696;52.138;5.444;2023-02-10T03:39:39;23.95;;;10.55;;
68718;SDS011;55696;52.138;5.444;2023-02-10T03:42:06;26.73;;;11.30;;
68718;SDS011;55696;52.138;5.444;2023-02-10T03:44:33;20.73;;;10.07;;
68718;SDS011;55696;52.138;5.444;2023-02-10T03:47:00;27.30;;;10.90;;
68718;SDS011;55696;52.138;5.444;2023-02-10T03:49:26;25.85;;;10.73;;
68718;SDS011;55696;52.138;5.444;2023-02-10T03:51:53;25.20;;;10.67;;
68718;SDS011;55696;52.138;5.444;2023-02-10T03:54:20;26.60;;;11.48;;
68718;SDS011;55696;52.138;5.444;2023-02-10T03:56:46;22.52;;;10.27;;
68718;SDS011;55696;52.138;5.444;2023-02-10T03:59:13;24.70;;;11.43;;
68718;SDS011;55696;52.138;5.444;2023-02-10T04:01:40;28.65;;;11.68;;
68718;SDS011;55696;52.138;5.444;2023-02-10T04:04:07;25.67;;;12.25;;
68718;SDS011;55696;52.138;5.444;2023-02-10T04:06:34;27.27;;;12.20;;
68718;SDS011;55696;52.138;5.444;2023-02-10T04:09:01;28.27;;;13.25;;
68718;SDS011;55696;52.138;5.444;2023-02-10T04:11:27;29.00;;;13.38;;
68718;SDS011;55696;52.138;5.444;2023-02-10T04:13:54;26.48;;;12.57;;
68718;SDS011;55696;52.138;5.444;2023-02-10T04:16:21;32.67;;;12.43;;
68718;SDS011;55696;52.138;5.444;2023-02-10T04:18:54;30.63;;;12.85;;
68718;SDS011;55696;52.138;5.444;2023-02-10T04:21:21;26.40;;;11.52;;
68718;SDS011;55696;52.138;5.444;2023-02-10T04:23:47;31.93;;;12.67;;
68718;SDS011;55696;52.138;5.444;2023-02-10T04:26:14;29.05;;;12.23;;
68718;SDS011;55696;52.138;5.444;2023-02-10T04:28:41;25.17;;;12.35;;
68718;SDS011;55696;52.138;5.444;2023-02-10T04:31:08;27.55;;;13.25;;
68718;SDS011;55696;52.138;5.444;2023-02-10T04:33:36;30.13;;;13.55;;
68718;SDS011;55696;52.138;5.444;2023-02-10T04:36:03;29.77;;;13.27;;
68718;SDS011;55696;52.138;5.444;2023-02-10T04:38:30;25.83;;;13.35;;
68718;SDS011;55696;52.138;5.444;2023-02-10T04:40:57;30.17;;;12.93;;
68718;SDS011;55696;52.138;5.444;2023-02-10T04:43:24;28.05;;;13.05;;
68718;SDS011;55696;52.138;5.444;2023-02-10T04:45:51;35.15;;;13.52;;
68718;SDS011;55696;52.138;5.444;2023-02-10T04:48:18;26.13;;;12.43;;
68718;SDS011;55696;52.138;5.444;2023-02-10T04:50:46;31.05;;;12.60;;
68718;SDS011;55696;52.138;5.444;2023-02-10T04:53:13;28.90;;;12.77;;
68718;SDS011;55696;52.138;5.444;2023-02-10T04:55:39;28.40;;;12.20;;
68718;SDS011;55696;52.138;5.444;2023-02-10T04:58:06;27.07;;;13.43;;
68718;SDS011;55696;52.138;5.444;2023-02-10T05:00:33;31.40;;;13.02;;
68718;SDS011;55696;52.138;5.444;2023-02-10T05:03:00;27.95;;;12.65;;
68718;SDS011;55696;52.138;5.444;2023-02-10T05:05:27;31.23;;;14.80;;
68718;SDS011;55696;52.138;5.444;2023-02-10T05:07:54;28.23;;;14.50;;
68718;SDS011;55696;52.138;5.444;2023-02-10T05:10:21;31.48;;;14.07;;
68718;SDS011;55696;52.138;5.444;2023-02-10T05:12:48;34.33;;;14.60;;
68718;SDS011;55696;52.138;5.444;2023-02-10T05:15:15;29.93;;;13.53;;
68718;SDS011;55696;52.138;5.444;2023-02-10T05:17:42;30.58;;;14.85;;
68718;SDS011;55696;52.138;5.444;2023-02-10T05:20:08;30.98;;;14.05;;
68718;SDS011;55696;52.138;5.444;2023-02-10T05:22:36;28.80;;;14.47;;
68718;SDS011;55696;52.138;5.444;2023-02-10T05:25:04;30.92;;;14.68;;
68718;SDS011;55696;52.138;5.444;2023-02-10T05:27:31;36.35;;;15.18;;
68718;SDS011;55696;52.138;5.444;2023-02-10T05:29:58;29.13;;;14.02;;
68718;SDS011;55696;52.138;5.444;2023-02-10T05:32:25;30.90;;;14.63;;
68718;SDS011;55696;52.138;5.444;2023-02-10T05:34:51;32.85;;;14.63;;
68718;SDS011;55696;52.138;5.444;2023-02-10T05:37:18;33.53;;;14.50;;
68718;SDS011;55696;52.138;5.444;2023-02-10T05:39:45;27.83;;;13.63;;
68718;SDS011;55696;52.138;5.444;2023-02-10T05:42:12;32.45;;;15.23;;
68718;SDS011;55696;52.138;5.444;2023-02-10T05:44:38;29.55;;;14.70;;
68718;SDS011;55696;52.138;5.444;2023-02-10T05:47:05;31.20;;;15.07;;
68718;SDS011;55696;52.138;5.444;2023-02-10T05:49:32;31.35;;;15.27;;
68718;SDS011;55696;52.138;5.444;2023-02-10T05:51:59;31.42;;;14.75;;
68718;SDS011;55696;52.138;5.444;2023-02-10T05:54:25;33.30;;;14.90;;
68718;SDS011;55696;52.138;5.444;2023-02-10T05:56:52;37.23;;;15.33;;
68718;SDS011;55696;52.138;5.444;2023-02-10T05:59:19;31.58;;;14.90;;
68718;SDS011;55696;52.138;5.444;2023-02-10T06:01:46;37.50;;;16.33;;
68718;SDS011;55696;52.138;5.444;2023-02-10T06:04:13;33.03;;;15.03;;
68718;SDS011;55696;52.138;5.444;2023-02-10T06:06:40;34.00;;;14.88;;
68718;SDS011;55696;52.138;5.444;2023-02-10T06:09:06;34.65;;;15.80;;
68718;SDS011;55696;52.138;5.444;2023-02-10T06:11:33;35.50;;;15.15;;
68718;SDS011;55696;52.138;5.444;2023-02-10T06:14:00;37.00;;;14.43;;
68718;SDS011;55696;52.138;5.444;2023-02-10T06:16:27;34.08;;;16.02;;
68718;SDS011;55696;52.138;5.444;2023-02-10T06:18:54;32.33;;;14.52;;
68718;SDS011;55696;52.138;5.444;2023-02-10T06:21:21;34.60;;;14.90;;
68718;SDS011;55696;52.138;5.444;2023-02-10T06:23:49;32.17;;;15.55;;
68718;SDS011;55696;52.138;5.444;2023-02-10T06:26:16;33.33;;;15.20;;
68718;SDS011;55696;52.138;5.444;2023-02-10T06:28:43;32.57;;;15.00;;
68718;SDS011;55696;52.138;5.444;2023-02-10T06:31:10;31.15;;;14.60;;
68718;SDS011;55696;52.138;5.444;2023-02-10T06:33:37;30.88;;;14.55;;
68718;SDS011;55696;52.138;5.444;2023-02-10T06:36:04;37.42;;;15.18;;
68718;SDS011;55696;52.138;5.444;2023-02-10T06:38:34;32.53;;;14.90;;
68718;SDS011;55696;52.138;5.444;2023-02-10T06:41:01;33.50;;;15.80;;
68718;SDS011;55696;52.138;5.444;2023-02-10T06:43:28;32.47;;;14.50;;
68718;SDS011;55696;52.138;5.444;2023-02-10T06:45:55;31.90;;;15.03;;
68718;SDS011;55696;52.138;5.444;2023-02-10T06:48:22;37.20;;;14.82;;
68718;SDS011;55696;52.138;5.444;2023-02-10T06:50:49;35.35;;;15.02;;
68718;SDS011;55696;52.138;5.444;2023-02-10T06:53:16;30.50;;;13.87;;
68718;SDS011;55696;52.138;5.444;2023-02-10T06:55:43;33.78;;;14.63;;
68718;SDS011;55696;52.138;5.444;2023-02-10T06:58:10;33.05;;;13.70;;
68718;SDS011;55696;52.138;5.444;2023-02-10T07:00:37;29.83;;;14.10;;
68718;SDS011;55696;52.138;5.444;2023-02-10T07:03:04;33.60;;;15.25;;
68718;SDS011;55696;52.138;5.444;2023-02-10T07:05:31;30.23;;;13.50;;
68718;SDS011;55696;52.138;5.444;2023-02-10T07:07:57;35.58;;;14.57;;
68718;SDS011;55696;52.138;5.444;2023-02-10T07:10:30;28.47;;;12.27;;
68718;SDS011;55696;52.138;5.444;2023-02-10T07:12:57;32.53;;;14.50;;
68718;SDS011;55696;52.138;5.444;2023-02-10T07:15:24;35.42;;;15.25;;
68718;SDS011;55696;52.138;5.444;2023-02-10T07:17:51;32.40;;;14.00;;
68718;SDS011;55696;52.138;5.444;2023-02-10T07:20:18;31.10;;;13.10;;
68718;SDS011;55696;52.138;5.444;2023-02-10T07:22:46;27.42;;;12.77;;
68718;SDS011;55696;52.138;5.444;2023-02-10T07:25:13;31.83;;;13.80;;
68718;SDS011;55696;52.138;5.444;2023-02-10T07:27:39;25.70;;;13.33;;
68718;SDS011;55696;52.138;5.444;2023-02-10T07:30:07;27.42;;;13.10;;
68718;SDS011;55696;52.138;5.444;2023-02-10T07:32:34;28.17;;;12.98;;
68718;SDS011;55696;52.138;5.444;2023-02-10T07:35:01;29.27;;;12.15;;
68718;SDS011;55696;52.138;5.444;2023-02-10T07:37:27;26.70;;;12.50;;
68718;SDS011;55696;52.138;5.444;2023-02-10T07:39:55;30.05;;;12.30;;
68718;SDS011;55696;52.138;5.444;2023-02-10T07:42:22;24.75;;;11.27;;
68718;SDS011;55696;52.138;5.444;2023-02-10T07:45:24;20.40;;;10.20;;
68718;SDS011;55696;52.138;5.444;2023-02-10T07:47:52;26.30;;;10.55;;
68718;SDS011;55696;52.138;5.444;2023-02-10T07:50:19;26.33;;;12.48;;
68718;SDS011;55696;52.138;5.444;2023-02-10T07:52:46;27.10;;;11.70;;
68718;SDS011;55696;52.138;5.444;2023-02-10T07:55:14;23.15;;;11.20;;
68718;SDS011;55696;52.138;5.444;2023-02-10T07:57:41;27.60;;;11.80;;
68718;SDS011;55696;52.138;5.444;2023-02-10T08:00:08;22.17;;;11.07;;
68718;SDS011;55696;52.138;5.444;2023-02-10T08:02:39;18.30;;;9.93;;
68718;SDS011;55696;52.138;5.444;2023-02-10T08:05:06;25.73;;;10.02;;
68718;SDS011;55696;52.138;5.444;2023-02-10T08:07:33;22.45;;;10.75;;
68718;SDS011;55696;52.138;5.444;2023-02-10T08:10:00;22.67;;;10.68;;
68718;SDS011;55696;52.138;5.444;2023-02-10T08:12:27;23.15;;;10.73;;
68718;SDS011;55696;52.138;5.444;2023-02-10T08:14:53;22.40;;;10.65;;
68718;SDS011;55696;52.138;5.444;2023-02-10T08:17:20;22.38;;;10.88;;
68718;SDS011;55696;52.138;5.444;2023-02-10T08:19:47;20.23;;;10.17;;
68718;SDS011;55696;52.138;5.444;2023-02-10T08:22:14;24.65;;;12.00;;
68718;SDS011;55696;52.138;5.444;2023-02-10T08:24:40;27.48;;;12.38;;
68718;SDS011;55696;52.138;5.444;2023-02-10T08:27:08;22.95;;;11.38;;
68718;SDS011;55696;52.138;5.444;2023-02-10T08:29:37;22.73;;;11.40;;
68718;SDS011;55696;52.138;5.444;2023-02-10T08:32:04;19.83;;;12.07;;
68718;SDS011;55696;52.138;5.444;2023-02-10T08:34:31;21.38;;;11.93;;
68718;SDS011;55696;52.138;5.444;2023-02-10T08:36:58;19.87;;;10.80;;
68718;SDS011;55696;52.138;5.444;2023-02-10T08:39:26;24.17;;;11.95;;
68718;SDS011;55696;52.138;5.444;2023-02-10T08:41:54;22.95;;;11.93;;
68718;SDS011;55696;52.138;5.444;2023-02-10T08:44:21;22.70;;;12.70;;
68718;SDS011;55696;52.138;5.444;2023-02-10T08:46:48;25.77;;;13.47;;
68718;SDS011;55696;52.138;5.444;2023-02-10T08:49:15;25.80;;;11.95;;
68718;SDS011;55696;52.138;5.444;2023-02-10T08:51:42;23.63;;;12.68;;
68718;SDS011;55696;52.138;5.444;2023-02-10T08:54:08;26.35;;;12.45;;
68718;SDS011;55696;52.138;5.444;2023-02-10T08:56:35;24.50;;;12.97;;
68718;SDS011;55696;52.138;5.444;2023-02-10T08:59:02;21.65;;;10.82;;
68718;SDS011;55696;52.138;5.444;2023-02-10T09:01:29;23.65;;;11.55;;
68718;SDS011;55696;52.138;5.444;2023-02-10T09:03:56;21.75;;;11.82;;
68718;SDS011;55696;52.138;5.444;2023-02-10T09:06:24;27.27;;;12.73;;
68718;SDS011;55696;52.138;5.444;2023-02-10T09:08:56;26.02;;;11.93;;
68718;SDS011;55696;52.138;5.444;2023-02-10T09:11:23;25.98;;;12.40;;
68718;SDS011;55696;52.138;5.444;2023-02-10T09:13:50;24.02;;;12.02;;
68718;SDS011;55696;52.138;5.444;2023-02-10T09:16:18;23.10;;;12.97;;
68718;SDS011;55696;52.138;5.444;2023-02-10T09:18:45;26.90;;;12.60;;
68718;SDS011;55696;52.138;5.444;2023-02-10T09:21:12;25.38;;;13.00;;
68718;SDS011;55696;52.138;5.444;2023-02-10T09:23:39;28.05;;;14.48;;
68718;SDS011;55696;52.138;5.444;2023-02-10T09:26:05;25.77;;;14.47;;
68718;SDS011;55696;52.138;5.444;2023-02-10T09:28:32;27.15;;;13.95;;
68718;SDS011;55696;52.138;5.444;2023-02-10T09:30:59;25.58;;;13.60;;
68718;SDS011;55696;52.138;5.444;2023-02-10T09:33:26;29.77;;;14.27;;
68718;SDS011;55696;52.138;5.444;2023-02-10T09:35:53;29.43;;;14.50;;
68718;SDS011;55696;52.138;5.444;2023-02-10T09:38:19;30.75;;;14.90;;
68718;SDS011;55696;52.138;5.444;2023-02-10T09:40:48;26.70;;;12.82;;
68718;SDS011;55696;52.138;5.444;2023-02-10T09:46:00;29.27;;;14.10;;
68718;SDS011;55696;52.138;5.444;2023-02-10T09:48:36;30.80;;;14.50;;
68718;SDS011;55696;52.138;5.444;2023-02-10T09:51:31;25.63;;;13.18;;
68718;SDS011;55696;52.138;5.444;2023-02-10T09:54:08;32.75;;;15.32;;
68718;SDS011;55696;52.138;5.444;2023-02-10T09:56:37;28.13;;;13.93;;
68718;SDS011;55696;52.138;5.444;2023-02-10T09:59:05;29.05;;;14.98;;
68718;SDS011;55696;52.138;5.444;2023-02-10T10:01:44;35.50;;;15.00;;
68718;SDS011;55696;52.138;5.444;2023-02-10T10:04:15;41.63;;;15.57;;
68718;SDS011;55696;52.138;5.444;2023-02-10T10:06:44;34.55;;;14.63;;
68718;SDS011;55696;52.138;5.444;2023-02-10T10:12:08;32.97;;;15.85;;
68718;SDS011;55696;52.138;5.444;2023-02-10T10:14:45;32.15;;;15.35;;
68718;SDS011;55696;52.138;5.444;2023-02-10T10:17:30;31.05;;;14.57;;
68718;SDS011;55696;52.138;5.444;2023-02-10T10:25:49;31.55;;;15.02;;
68718;SDS011;55696;52.138;5.444;2023-02-10T10:31:08;30.02;;;14.98;;
68718;SDS011;55696;52.138;5.444;2023-02-10T10:36:11;30.38;;;14.15;;
68718;SDS011;55696;52.138;5.444;2023-02-10T10:38:47;30.08;;;13.05;;
68718;SDS011;55696;52.138;5.444;2023-02-10T10:41:17;29.50;;;13.50;;
68718;SDS011;55696;52.138;5.444;2023-02-10T10:43:47;26.23;;;13.52;;
68718;SDS011;55696;52.138;5.444;2023-02-10T10:48:51;27.42;;;13.20;;
68718;SDS011;55696;52.138;5.444;2023-02-10T10:51:19;28.30;;;14.43;;
68718;SDS011;55696;52.138;5.444;2023-02-10T10:53:51;29.25;;;14.07;;
68718;SDS011;55696;52.138;5.444;2023-02-10T10:58:56;30.07;;;13.00;;
68718;SDS011;55696;52.138;5.444;2023-02-10T11:01:35;24.05;;;11.77;;
68718;SDS011;55696;52.138;5.444;2023-02-10T11:04:04;25.02;;;11.80;;
68718;SDS011;55696;52.138;5.444;2023-02-10T11:06:49;26.67;;;11.50;;
68718;SDS011;55696;52.138;5.444;2023-02-10T11:09:22;22.77;;;10.68;;
68718;SDS011;55696;52.138;5.444;2023-02-10T11:12:05;22.37;;;11.07;;
68718;SDS011;55696;52.138;5.444;2023-02-10T11:14:43;24.55;;;12.20;;
68718;SDS011;55696;52.138;5.444;2023-02-10T11:17:19;23.63;;;10.80;;
68718;SDS011;55696;52.138;5.444;2023-02-10T11:22:39;24.13;;;11.35;;
68718;SDS011;55696;52.138;5.444;2023-02-10T11:25:26;23.97;;;11.33;;
68718;SDS011;55696;52.138;5.444;2023-02-10T11:27:54;28.33;;;11.55;;
68718;SDS011;55696;52.138;5.444;2023-02-10T11:30:24;23.05;;;10.00;;
68718;SDS011;55696;52.138;5.444;2023-02-10T11:33:05;24.92;;;11.88;;
68718;SDS011;55696;52.138;5.444;2023-02-10T11:38:58;23.37;;;10.77;;
68718;SDS011;55696;52.138;5.444;2023-02-10T11:41:28;25.55;;;11.88;;
68718;SDS011;55696;52.138;5.444;2023-02-10T11:43:56;23.50;;;10.15;;
68718;SDS011;55696;52.138;5.444;2023-02-10T11:46:24;23.65;;;10.95;;
68718;SDS011;55696;52.138;5.444;2023-02-10T11:48:57;26.35;;;11.18;;
68718;SDS011;55696;52.138;5.444;2023-02-10T11:51:26;25.67;;;10.97;;
68718;SDS011;55696;52.138;5.444;2023-02-10T11:53:54;24.70;;;9.85;;
68718;SDS011;55696;52.138;5.444;2023-02-10T11:56:29;26.73;;;10.95;;
68718;SDS011;55696;52.138;5.444;2023-02-10T11:59:35;23.38;;;11.05;;
68718;SDS011;55696;52.138;5.444;2023-02-10T12:02:12;26.88;;;11.10;;
68718;SDS011;55696;52.138;5.444;2023-02-10T12:04:58;28.27;;;11.13;;
68718;SDS011;55696;52.138;5.444;2023-02-10T12:10:17;23.35;;;9.55;;
68718;SDS011;55696;52.138;5.444;2023-02-10T12:15:34;21.63;;;9.63;;
68718;SDS011;55696;52.138;5.444;2023-02-10T12:18:24;22.90;;;9.80;;
68718;SDS011;55696;52.138;5.444;2023-02-10T12:27:12;25.55;;;9.23;;
68718;SDS011;55696;52.138;5.444;2023-02-10T12:38:30;24.58;;;10.45;;
68718;SDS011;55696;52.138;5.444;2023-02-10T12:43:58;21.02;;;9.65;;
68718;SDS011;55696;52.138;5.444;2023-02-10T12:54:46;27.88;;;11.45;;
68718;SDS011;55696;52.138;5.444;2023-02-10T12:57:26;21.73;;;9.68;;
68718;SDS011;55696;52.138;5.444;2023-02-10T13:00:26;23.23;;;9.87;;
68718;SDS011;55696;52.138;5.444;2023-02-10T13:08:44;22.13;;;9.50;;
68718;SDS011;55696;52.138;5.444;2023-02-10T13:11:20;26.55;;;10.65;;
68718;SDS011;55696;52.138;5.444;2023-02-10T13:14:08;28.53;;;10.93;;
68718;SDS011;55696;52.138;5.444;2023-02-10T13:16:43;30.98;;;10.38;;
68718;SDS011;55696;52.138;5.444;2023-02-10T13:19:23;24.35;;;10.85;;
68718;SDS011;55696;52.138;5.444;2023-02-10T13:22:02;24.85;;;11.40;;
68718;SDS011;55696;52.138;5.444;2023-02-10T13:24:41;27.75;;;10.70;;
68718;SDS011;55696;52.138;5.444;2023-02-10T13:35:50;32.20;;;10.93;;
68718;SDS011;55696;52.138;5.444;2023-02-10T13:38:19;24.77;;;10.70;;
68718;SDS011;55696;52.138;5.444;2023-02-10T13:40:51;24.10;;;11.23;;
68718;SDS011;55696;52.138;5.444;2023-02-10T13:43:41;30.05;;;11.85;;
68718;SDS011;55696;52.138;5.444;2023-02-10T13:46:22;25.15;;;11.25;;
68718;SDS011;55696;52.138;5.444;2023-02-10T13:48:53;28.70;;;10.60;;
68718;SDS011;55696;52.138;5.444;2023-02-10T13:51:30;25.77;;;11.05;;
68718;SDS011;55696;52.138;5.444;2023-02-10T13:54:00;26.40;;;11.33;;
68718;SDS011;55696;52.138;5.444;2023-02-10T13:56:28;36.10;;;11.85;;
68718;SDS011;55696;52.138;5.444;2023-02-10T13:59:02;29.33;;;12.15;;
68718;SDS011;55696;52.138;5.444;2023-02-10T14:01:38;37.55;;;14.00;;
68718;SDS011;55696;52.138;5.444;2023-02-10T14:06:45;31.13;;;14.93;;
68718;SDS011;55696;52.138;5.444;2023-02-10T14:11:56;32.30;;;13.45;;
68718;SDS011;55696;52.138;5.444;2023-02-10T14:14:26;31.58;;;13.38;;
68718;SDS011;55696;52.138;5.444;2023-02-10T14:19:55;34.93;;;15.73;;
68718;SDS011;55696;52.138;5.444;2023-02-10T14:22:34;30.42;;;14.30;;
68718;SDS011;55696;52.138;5.444;2023-02-10T14:25:53;31.33;;;15.55;;
68718;SDS011;55696;52.138;5.444;2023-02-10T14:28:17;34.67;;;15.52;;
68718;SDS011;55696;52.138;5.444;2023-02-10T14:30:50;36.42;;;15.82;;
68718;SDS011;55696;52.138;5.444;2023-02-10T14:33:25;33.73;;;17.13;;
68718;SDS011;55696;52.138;5.444;2023-02-10T14:35:55;43.22;;;18.15;;
68718;SDS011;55696;52.138;5.444;2023-02-10T14:38:24;34.63;;;16.10;;
68718;SDS011;55696;52.138;5.444;2023-02-10T14:40:57;36.20;;;16.88;;
68718;SDS011;55696;52.138;5.444;2023-02-10T14:43:40;38.83;;;16.40;;
68718;SDS011;55696;52.138;5.444;2023-02-10T14:46:07;40.37;;;18.27;;
68718;SDS011;55696;52.138;5.444;2023-02-10T14:48:44;43.40;;;19.58;;
68718;SDS011;55696;52.138;5.444;2023-02-10T14:51:19;41.03;;;19.17;;
68718;SDS011;55696;52.138;5.444;2023-02-10T14:53:49;39.28;;;18.17;;
68718;SDS011;55696;52.138;5.444;2023-02-10T14:56:27;41.13;;;18.02;;
68718;SDS011;55696;52.138;5.444;2023-02-10T14:58:54;46.33;;;19.87;;
68718;SDS011;55696;52.138;5.444;2023-02-10T15:01:25;42.42;;;20.40;;
68718;SDS011;55696;52.138;5.444;2023-02-10T15:03:55;38.83;;;19.10;;
68718;SDS011;55696;52.138;5.444;2023-02-10T15:06:27;40.25;;;20.40;;
68718;SDS011;55696;52.138;5.444;2023-02-10T15:09:00;41.40;;;19.67;;
68718;SDS011;55696;52.138;5.444;2023-02-10T15:11:51;44.90;;;18.83;;
68718;SDS011;55696;52.138;5.444;2023-02-10T15:17:43;43.75;;;20.70;;
68718;SDS011;55696;52.138;5.444;2023-02-10T15:25:28;41.10;;;19.77;;
68718;SDS011;55696;52.138;5.444;2023-02-10T15:36:05;39.55;;;20.05;;
68718;SDS011;55696;52.138;5.444;2023-02-10T15:41:35;45.78;;;20.88;;
68718;SDS011;55696;52.138;5.444;2023-02-10T15:44:22;42.42;;;20.15;;
68718;SDS011;55696;52.138;5.444;2023-02-10T15:47:22;48.58;;;21.27;;
68718;SDS011;55696;52.138;5.444;2023-02-10T15:49:54;49.92;;;22.98;;
68718;SDS011;55696;52.138;5.444;2023-02-10T15:52:29;49.20;;;20.87;;
68718;SDS011;55696;52.138;5.444;2023-02-10T15:55:03;50.30;;;21.15;;
68718;SDS011;55696;52.138;5.444;2023-02-10T15:57:32;46.60;;;22.05;;
68718;SDS011;55696;52.138;5.444;2023-02-10T15:59:59;53.78;;;22.10;;
68718;SDS011;55696;52.138;5.444;2023-02-10T16:02:26;45.45;;;19.27;;
68718;SDS011;55696;52.138;5.444;2023-02-10T16:04:53;47.73;;;21.40;;
68718;SDS011;55696;52.138;5.444;2023-02-10T16:07:21;42.15;;;18.77;;
68718;SDS011;55696;52.138;5.444;2023-02-10T16:09:52;44.28;;;19.42;;
68718;SDS011;55696;52.138;5.444;2023-02-10T16:12:20;40.72;;;19.85;;
68718;SDS011;55696;52.138;5.444;2023-02-10T16:14:47;46.85;;;21.13;;
68718;SDS011;55696;52.138;5.444;2023-02-10T16:17:18;42.70;;;18.83;;
68718;SDS011;55696;52.138;5.444;2023-02-10T16:19:49;43.88;;;19.20;;
68718;SDS011;55696;52.138;5.444;2023-02-10T16:22:16;43.00;;;19.10;;
68718;SDS011;55696;52.138;5.444;2023-02-10T16:24:44;42.42;;;19.90;;
68718;SDS011;55696;52.138;5.444;2023-02-10T16:27:11;40.55;;;18.60;;
68718;SDS011;55696;52.138;5.444;2023-02-10T16:29:38;43.07;;;19.73;;
68718;SDS011;55696;52.138;5.444;2023-02-10T16:32:05;37.88;;;17.63;;
68718;SDS011;55696;52.138;5.444;2023-02-10T16:34:32;39.08;;;18.02;;
68718;SDS011;55696;52.138;5.444;2023-02-10T16:36:59;39.78;;;17.67;;
68718;SDS011;55696;52.138;5.444;2023-02-10T16:39:26;40.60;;;17.85;;
68718;SDS011;55696;52.138;5.444;2023-02-10T16:41:53;42.63;;;19.63;;